首页
METAR-TAF:

METAR-TAF

机场 :

夏洛特道格拉斯國際機場

夏洛特, 北卡罗来纳州, 美国

纬度: 35-12-48N, 经度: 080-56-55W, 海拔: 228米

当前天气观测

该预报发布于22分钟前的10:52 UTC
风速3节,风向东北
温度 3°C
湿度 81%
气压 1027 hPa
能見度: 16.1公里
天空无云

METAR: KCLT 221052Z 05003KT 10SM CLR 03/00 A3032 RMK AO2 SLP268 T00280000

时间: 06:14 (11:14 UTC)

预报

该预报发布于1小时和26分钟前的09:48 UTC
预报有效从22日的 10点(UTC)到 23日的 12点(UTC)
风速3节,风向
能見度: 10公里
天空无云
从 22日的 1200点(UTC)
风速5节,风向东北
能見度: 10公里
少量云层高于25000英尺
从 22日的 1800点(UTC)
风速7节,风向东转东北
能見度: 10公里
散云层高于25000英尺
从 23日的 0700点(UTC)
风速7节,风向东转东北
能見度: 10公里
少量云层高于6000英尺
散云层高于20000英尺

TAF: KCLT 220948Z 2210/2312 01003KT P6SM SKC FM221200 04005KT P6SM FEW250 FM221800 06007KT P6SM SCT250 FM230700 06007KT P6SM FEW060 SCT200

超过4000个机场的气象观测和天气预报(METAR&TAF报告)。

可查询的气象台以黄色和红色小点在地图上表示。

将鼠标移到小点上方,可查看气象台名称。

然后点击查看天气观测和预报。

如需切换地图:点击带黑十字的绿色按钮放大地图;点击带横线的绿色按钮缩小地图;或者点击绿色箭头查看邻近地区的地图。


METAR-TAF: